createdAt,value
2023-03-02T00:02:02.288Z,-3.19
2023-03-02T00:04:40.024Z,-3.14
2023-03-02T00:07:11.488Z,-3.09
2023-03-02T00:09:40.124Z,-3.05
2023-03-02T00:12:09.195Z,-3.02
2023-03-02T00:14:39.047Z,-2.98
2023-03-02T00:17:10.803Z,-2.93
2023-03-02T00:19:39.248Z,-2.89
2023-03-02T00:22:09.474Z,-2.86
2023-03-02T00:24:38.300Z,-2.85
2023-03-02T00:27:06.528Z,-2.85
2023-03-02T00:29:35.000Z,-2.85
2023-03-02T00:32:04.175Z,-2.85
2023-03-02T00:34:32.576Z,-2.85
2023-03-02T00:37:00.853Z,-2.85
2023-03-02T00:39:29.001Z,-2.81
2023-03-02T00:41:57.311Z,-2.74
2023-03-02T00:44:25.479Z,-2.65
2023-03-02T00:46:53.644Z,-2.57
2023-03-02T00:49:22.038Z,-2.53
2023-03-02T00:51:50.300Z,-2.48
2023-03-02T00:54:18.488Z,-2.45
2023-03-02T00:56:46.649Z,-2.33
2023-03-02T00:59:27.734Z,-2.18
2023-03-02T01:02:11.004Z,-2.03
2023-03-02T01:04:41.654Z,-1.93
2023-03-02T01:07:26.307Z,-1.83
2023-03-02T01:09:54.527Z,-1.82
2023-03-02T01:12:22.803Z,-1.86
2023-03-02T01:14:51.180Z,-1.87
2023-03-02T01:17:22.270Z,-1.85
2023-03-02T01:19:50.420Z,-1.87
2023-03-02T01:22:19.369Z,-1.82
2023-03-02T01:24:47.496Z,-1.80
2023-03-02T01:27:15.787Z,-1.73
2023-03-02T01:29:43.906Z,-1.73
2023-03-02T01:32:12.075Z,-1.79
2023-03-02T01:34:40.737Z,-1.83
2023-03-02T01:37:08.892Z,-1.80
2023-03-02T01:39:37.029Z,-1.83
2023-03-02T01:42:05.284Z,-1.91
2023-03-02T01:44:41.718Z,-1.97
2023-03-02T01:47:15.180Z,-1.94
2023-03-02T01:49:57.641Z,-1.87
2023-03-02T01:52:29.293Z,-1.85
2023-03-02T01:55:01.927Z,-1.85
2023-03-02T01:57:35.033Z,-1.86
2023-03-02T02:00:09.000Z,-1.84
2023-03-02T02:02:42.145Z,-1.86
2023-03-02T02:05:14.189Z,-1.90
2023-03-02T02:07:42.931Z,-1.94
2023-03-02T02:10:12.456Z,-1.96
2023-03-02T02:12:40.703Z,-1.98
2023-03-02T02:15:09.366Z,-2.01
2023-03-02T02:17:37.750Z,-2.07
2023-03-02T02:20:20.931Z,-2.15
2023-03-02T02:22:54.847Z,-2.23
2023-03-02T02:25:55.620Z,-2.28
2023-03-02T02:28:45.264Z,-2.36
2023-03-02T02:31:22.668Z,-2.41
2023-03-02T02:33:56.387Z,-2.45
2023-03-02T02:36:34.009Z,-2.52
2023-03-02T02:39:08.721Z,-2.57
2023-03-02T02:41:39.962Z,-2.62
2023-03-02T02:44:20.258Z,-2.63
2023-03-02T02:46:48.436Z,-2.62
2023-03-02T02:49:30.814Z,-2.60
2023-03-02T02:51:59.708Z,-2.56
2023-03-02T02:54:30.314Z,-2.50
2023-03-02T02:57:01.810Z,-2.44
2023-03-02T02:59:35.553Z,-2.38
2023-03-02T03:02:04.205Z,-2.29
2023-03-02T03:04:33.557Z,-2.20
2023-03-02T03:07:06.359Z,-2.10
2023-03-02T03:09:34.926Z,-2.01
2023-03-02T03:12:11.234Z,-1.92
2023-03-02T03:14:41.289Z,-1.82
2023-03-02T03:17:12.997Z,-1.75
2023-03-02T03:20:09.551Z,-1.68
2023-03-02T03:22:39.813Z,-1.62
2023-03-02T03:25:09.838Z,-1.58
2023-03-02T03:27:38.035Z,-1.50
2023-03-02T03:30:07.851Z,-1.44
2023-03-02T03:32:36.936Z,-1.41
2023-03-02T03:35:08.893Z,-1.39
2023-03-02T03:37:40.011Z,-1.35
2023-03-02T03:40:10.617Z,-1.32
2023-03-02T03:42:40.665Z,-1.29
2023-03-02T03:45:09.827Z,-1.25
2023-03-02T03:47:38.880Z,-1.19
2023-03-02T03:50:08.592Z,-1.15
2023-03-02T03:52:37.453Z,-1.12
2023-03-02T03:55:12.793Z,-1.06
2023-03-02T03:57:42.157Z,-1.02
2023-03-02T04:00:15.095Z,-1.04
2023-03-02T04:02:47.247Z,-1.03
2023-03-02T04:05:17.208Z,-0.97
2023-03-02T04:07:46.161Z,-0.89
2023-03-02T04:10:14.507Z,-0.86
2023-03-02T04:12:44.126Z,-0.90
2023-03-02T04:15:16.259Z,-0.97
2023-03-02T04:17:46.146Z,-1.03
2023-03-02T04:20:17.846Z,-1.06
2023-03-02T04:22:51.861Z,-1.07
2023-03-02T04:25:23.316Z,-1.06
2023-03-02T04:27:54.418Z,-1.06
2023-03-02T04:30:26.470Z,-1.07
2023-03-02T04:32:57.548Z,-1.08
2023-03-02T04:35:27.419Z,-1.09
2023-03-02T04:37:56.210Z,-1.11
2023-03-02T04:40:25.227Z,-1.12
2023-03-02T04:42:53.489Z,-1.12
2023-03-02T04:45:21.772Z,-1.15
2023-03-02T04:47:49.928Z,-1.17
2023-03-02T04:50:18.089Z,-1.21
2023-03-02T04:52:46.189Z,-1.25
2023-03-02T04:55:23.659Z,-1.27
2023-03-02T04:57:51.761Z,-1.30
2023-03-02T05:00:21.261Z,-1.32
2023-03-02T05:02:49.834Z,-1.34
2023-03-02T05:05:24.438Z,-1.35
2023-03-02T05:07:53.153Z,-1.36
2023-03-02T05:10:24.316Z,-1.36
2023-03-02T05:13:02.784Z,-1.36
2023-03-02T05:15:39.894Z,-1.34
2023-03-02T05:18:11.138Z,-1.33
2023-03-02T05:20:39.813Z,-1.32
2023-03-02T05:23:09.940Z,-1.29
2023-03-02T05:25:39.143Z,-1.26
2023-03-02T05:28:07.406Z,-1.21
2023-03-02T05:30:37.997Z,-1.16
2023-03-02T05:33:06.830Z,-1.10
2023-03-02T05:35:35.510Z,-1.02
2023-03-02T05:38:04.620Z,-0.94
2023-03-02T05:40:33.292Z,-0.83
2023-03-02T05:43:02.294Z,-0.72
2023-03-02T05:45:36.929Z,-0.62
2023-03-02T05:48:06.407Z,-0.50
2023-03-02T05:50:34.664Z,-0.38
2023-03-02T05:53:03.073Z,-0.28
2023-03-02T05:55:31.506Z,-0.20
2023-03-02T05:57:59.647Z,-0.10
2023-03-02T06:00:28.043Z,0.01
2023-03-02T06:02:56.928Z,0.12
2023-03-02T06:05:25.263Z,0.23
2023-03-02T06:07:54.008Z,0.33
2023-03-02T06:10:22.230Z,0.43
2023-03-02T06:12:50.750Z,0.50
2023-03-02T06:15:18.992Z,0.62
2023-03-02T06:17:47.577Z,0.75
2023-03-02T06:20:16.788Z,0.86
2023-03-02T06:22:47.037Z,0.97
2023-03-02T06:25:18.558Z,1.05
2023-03-02T06:27:47.644Z,1.06
2023-03-02T06:30:18.038Z,1.07
2023-03-02T06:32:46.313Z,1.12
2023-03-02T06:35:15.464Z,1.23
2023-03-02T06:37:44.436Z,1.29
2023-03-02T06:40:14.158Z,1.36
2023-03-02T06:42:43.187Z,1.48
2023-03-02T06:45:11.723Z,1.54
2023-03-02T06:47:39.942Z,1.52
2023-03-02T06:50:09.520Z,1.51
2023-03-02T06:52:37.616Z,1.49
2023-03-02T06:55:06.905Z,1.51
2023-03-02T06:57:35.174Z,1.56
2023-03-02T07:00:10.238Z,1.61
2023-03-02T07:02:38.552Z,1.66
2023-03-02T07:05:07.718Z,1.73
2023-03-02T07:07:36.269Z,1.85
2023-03-02T07:10:06.848Z,1.95
2023-03-02T07:12:35.515Z,2.03
2023-03-02T07:15:04.711Z,2.12
2023-03-02T07:17:34.139Z,2.09
2023-03-02T07:20:04.116Z,2.12
2023-03-02T07:22:33.044Z,2.16
2023-03-02T07:25:01.195Z,2.14
2023-03-02T07:27:29.557Z,2.15
2023-03-02T07:29:57.690Z,2.19
2023-03-02T07:32:26.184Z,2.28
2023-03-02T07:34:54.520Z,2.43
2023-03-02T07:37:22.921Z,2.52
2023-03-02T07:39:51.118Z,2.59
2023-03-02T07:42:19.334Z,2.66
2023-03-02T07:44:49.263Z,2.77
2023-03-02T07:47:17.392Z,2.82
2023-03-02T07:49:45.806Z,2.79
2023-03-02T07:52:14.027Z,2.87
2023-03-02T07:54:42.490Z,2.97
2023-03-02T07:57:11.069Z,3.12
2023-03-02T07:59:39.126Z,3.22
2023-03-02T08:02:07.457Z,3.24
2023-03-02T08:04:36.095Z,3.36
2023-03-02T08:07:04.264Z,3.50
2023-03-02T08:09:32.859Z,3.60
2023-03-02T08:12:00.971Z,3.66
2023-03-02T08:14:29.171Z,3.80
2023-03-02T08:16:57.464Z,3.91
2023-03-02T08:19:26.533Z,4.05
2023-03-02T08:21:54.666Z,4.17
2023-03-02T08:24:22.826Z,4.21
2023-03-02T08:26:51.000Z,4.31
2023-03-02T08:29:19.478Z,4.49
2023-03-02T08:31:47.649Z,4.62
2023-03-02T08:34:15.803Z,4.68
2023-03-02T08:36:44.780Z,4.47
2023-03-02T08:39:13.602Z,4.57
2023-03-02T08:41:41.794Z,4.60
2023-03-02T08:44:09.934Z,4.52
2023-03-02T08:46:38.218Z,4.67
2023-03-02T08:49:06.378Z,4.95
2023-03-02T08:51:35.180Z,5.19
2023-03-02T08:54:03.584Z,5.27
2023-03-02T08:56:35.548Z,5.29
2023-03-02T08:59:11.119Z,5.33
2023-03-02T09:01:40.492Z,5.44
2023-03-02T09:04:11.450Z,5.61
2023-03-02T09:06:43.210Z,5.61
2023-03-02T09:09:13.484Z,5.44
2023-03-02T09:11:42.681Z,5.43
2023-03-02T09:14:11.128Z,5.64
2023-03-02T09:16:39.765Z,5.83
2023-03-02T09:19:08.202Z,5.88
2023-03-02T09:21:38.448Z,5.89
2023-03-02T09:24:06.870Z,5.98
2023-03-02T09:26:36.348Z,6.29
2023-03-02T09:29:06.939Z,6.60
2023-03-02T09:31:36.491Z,6.91
2023-03-02T09:34:05.904Z,6.95
2023-03-02T09:36:34.743Z,6.96
2023-03-02T09:39:08.677Z,7.02
2023-03-02T09:41:57.610Z,7.40
2023-03-02T09:45:03.532Z,7.85
2023-03-02T09:48:10.376Z,8.03
2023-03-02T09:50:40.694Z,8.09
2023-03-02T09:53:11.864Z,8.21
2023-03-02T09:55:40.103Z,8.49
2023-03-02T09:58:15.952Z,8.59
2023-03-02T10:00:45.660Z,8.70
2023-03-02T10:03:18.585Z,8.75
2023-03-02T10:05:49.451Z,8.71
2023-03-02T10:08:21.896Z,8.72
2023-03-02T10:11:11.796Z,8.76
2023-03-02T10:13:54.837Z,9.15
2023-03-02T10:16:45.920Z,9.43
2023-03-02T10:19:29.904Z,9.01
2023-03-02T10:22:15.843Z,9.04
2023-03-02T10:25:08.584Z,9.04
2023-03-02T10:27:44.501Z,9.05
2023-03-02T10:30:34.063Z,8.81
2023-03-02T10:33:09.906Z,8.29
2023-03-02T10:35:45.084Z,8.37
2023-03-02T10:38:18.069Z,8.77
2023-03-02T10:40:46.188Z,9.05
2023-03-02T10:43:20.221Z,9.18
2023-03-02T10:46:02.611Z,9.43
2023-03-02T10:48:31.105Z,9.75
2023-03-02T10:51:00.652Z,9.92
2023-03-02T10:53:29.313Z,9.89
2023-03-02T10:55:57.526Z,9.79
2023-03-02T10:58:32.148Z,10.03
2023-03-02T11:01:03.830Z,9.61
2023-03-02T11:03:33.680Z,9.19
2023-03-02T11:06:20.414Z,9.10
2023-03-02T11:09:02.551Z,9.00
2023-03-02T11:11:31.774Z,8.97
2023-03-02T11:14:15.957Z,8.87
2023-03-02T11:16:44.680Z,9.25
2023-03-02T11:19:38.078Z,9.51
2023-03-02T11:22:23.713Z,9.84
2023-03-02T11:24:56.354Z,9.97
2023-03-02T11:27:30.017Z,10.17
2023-03-02T11:30:02.963Z,10.36
2023-03-02T11:32:42.042Z,9.83
2023-03-02T11:35:29.520Z,9.42
2023-03-02T11:38:10.499Z,9.44
2023-03-02T11:40:50.000Z,9.41
2023-03-02T11:43:18.134Z,9.20
2023-03-02T11:45:51.976Z,8.86
2023-03-02T11:48:31.000Z,8.90
2023-03-02T11:51:06.707Z,8.78
2023-03-02T11:53:43.830Z,8.81
2023-03-02T11:56:12.883Z,8.79
2023-03-02T11:58:44.183Z,8.89
2023-03-02T12:01:19.394Z,9.03
2023-03-02T12:03:48.134Z,8.91
2023-03-02T12:06:22.615Z,8.58
2023-03-02T12:08:55.726Z,8.45
2023-03-02T12:11:23.875Z,8.35
2023-03-02T12:13:54.781Z,8.33
2023-03-02T12:16:37.309Z,8.41
2023-03-02T12:19:28.200Z,8.31
2023-03-02T12:21:58.069Z,8.21
2023-03-02T12:24:32.234Z,8.38
2023-03-02T12:27:16.704Z,8.46
2023-03-02T12:30:18.856Z,8.52
2023-03-02T12:33:10.426Z,8.59
2023-03-02T12:35:39.380Z,8.56
2023-03-02T12:38:31.233Z,8.48
2023-03-02T12:41:26.291Z,8.27
2023-03-02T12:44:23.895Z,7.62
2023-03-02T12:46:52.190Z,7.56
2023-03-02T12:49:50.360Z,7.21
2023-03-02T12:52:28.802Z,7.22
2023-03-02T12:55:20.310Z,7.22
2023-03-02T12:57:50.773Z,7.15
2023-03-02T13:00:23.154Z,6.93
2023-03-02T13:02:54.873Z,6.77
2023-03-02T13:05:26.927Z,6.40
2023-03-02T13:08:09.537Z,6.32
2023-03-02T13:11:04.318Z,6.42
2023-03-02T13:13:32.702Z,6.47
2023-03-02T13:16:04.725Z,6.49
2023-03-02T13:18:36.805Z,6.54
2023-03-02T13:21:13.182Z,6.50
2023-03-02T13:23:50.381Z,6.48
2023-03-02T13:26:36.746Z,6.51
2023-03-02T13:29:31.974Z,6.37
2023-03-02T13:32:43.501Z,6.31
2023-03-02T13:35:26.541Z,6.12
2023-03-02T13:37:56.896Z,6.13
2023-03-02T13:40:30.008Z,6.03
2023-03-02T13:42:58.134Z,6.11
2023-03-02T13:45:32.145Z,6.07
2023-03-02T13:48:15.453Z,6.05
2023-03-02T13:50:51.717Z,6.06
2023-03-02T13:53:20.657Z,6.05
2023-03-02T13:55:49.263Z,6.01
2023-03-02T13:58:19.510Z,5.86
2023-03-02T14:00:48.385Z,5.94
2023-03-02T14:03:26.799Z,5.95
2023-03-02T14:05:56.600Z,5.92
2023-03-02T14:08:25.229Z,5.76
2023-03-02T14:10:57.563Z,5.65
2023-03-02T14:13:37.972Z,5.71
2023-03-02T14:16:06.968Z,5.69
2023-03-02T14:18:35.007Z,5.69
2023-03-02T14:21:03.606Z,5.66
2023-03-02T14:23:32.132Z,5.65
2023-03-02T14:26:00.337Z,5.65
2023-03-02T14:28:33.047Z,5.65
2023-03-02T14:31:01.430Z,5.65
2023-03-02T14:33:29.570Z,5.61
2023-03-02T14:35:58.882Z,5.60
2023-03-02T14:38:27.936Z,5.58
2023-03-02T14:40:57.168Z,5.56
2023-03-02T14:43:25.450Z,5.54
2023-03-02T14:45:53.716Z,5.50
2023-03-02T14:48:22.092Z,5.42
2023-03-02T14:50:51.743Z,5.35
2023-03-02T14:53:28.125Z,5.26
2023-03-02T14:55:56.445Z,5.15
2023-03-02T14:58:32.832Z,5.11
2023-03-02T15:01:01.245Z,5.09
2023-03-02T15:03:29.620Z,5.04
2023-03-02T15:06:02.160Z,4.99
2023-03-02T15:08:30.627Z,4.91
2023-03-02T15:10:59.026Z,4.85
2023-03-02T15:13:27.350Z,4.81
2023-03-02T15:15:56.702Z,4.73
2023-03-02T15:18:24.867Z,4.69
2023-03-02T15:20:52.962Z,4.64
2023-03-02T15:23:21.311Z,4.57
2023-03-02T15:25:49.403Z,4.51
2023-03-02T15:28:17.515Z,4.43
2023-03-02T15:30:46.925Z,4.39
2023-03-02T15:33:15.040Z,4.33
2023-03-02T15:35:44.639Z,4.28
2023-03-02T15:38:13.086Z,4.26
2023-03-02T15:40:41.189Z,4.22
2023-03-02T15:43:09.609Z,4.16
2023-03-02T15:45:37.959Z,4.08
2023-03-02T15:48:06.624Z,4.01
2023-03-02T15:50:34.798Z,3.93
2023-03-02T15:53:02.881Z,3.86
2023-03-02T15:55:31.087Z,3.78
2023-03-02T15:58:00.114Z,3.69
2023-03-02T16:00:28.235Z,3.58
2023-03-02T16:02:56.471Z,3.51
2023-03-02T16:05:24.649Z,3.44
2023-03-02T16:07:52.775Z,3.34
2023-03-02T16:10:21.280Z,3.22
2023-03-02T16:12:49.458Z,3.11
2023-03-02T16:15:17.955Z,2.98
2023-03-02T16:17:46.225Z,2.88
2023-03-02T16:20:14.328Z,2.78
2023-03-02T16:22:42.691Z,2.68
2023-03-02T16:25:11.518Z,2.57
2023-03-02T16:27:39.687Z,2.45
2023-03-02T16:30:09.398Z,2.32
2023-03-02T16:32:38.214Z,2.20
2023-03-02T16:35:09.202Z,2.12
2023-03-02T16:37:37.429Z,2.00
2023-03-02T16:40:06.159Z,1.88
2023-03-02T16:42:34.411Z,1.78
2023-03-02T16:45:02.718Z,1.68
2023-03-02T16:47:30.835Z,1.56
2023-03-02T16:49:59.039Z,1.47
2023-03-02T16:52:27.205Z,1.35
2023-03-02T16:54:55.451Z,1.25
2023-03-02T16:57:23.666Z,1.14
2023-03-02T16:59:52.264Z,1.02
2023-03-02T17:02:20.430Z,0.90
2023-03-02T17:04:48.568Z,0.78
2023-03-02T17:07:16.768Z,0.64
2023-03-02T17:09:44.916Z,0.53
2023-03-02T17:12:13.062Z,0.41
2023-03-02T17:14:41.285Z,0.30
2023-03-02T17:17:09.913Z,0.20
2023-03-02T17:19:38.562Z,0.09
2023-03-02T17:22:06.777Z,-0.00
2023-03-02T17:24:35.225Z,-0.09
2023-03-02T17:27:05.445Z,-0.18
2023-03-02T17:29:36.925Z,-0.27
2023-03-02T17:32:05.310Z,-0.36
2023-03-02T17:34:33.922Z,-0.44
2023-03-02T17:37:02.237Z,-0.52
2023-03-02T17:39:30.406Z,-0.60
2023-03-02T17:41:58.732Z,-0.69
2023-03-02T17:44:27.985Z,-0.77
2023-03-02T17:46:56.163Z,-0.82
2023-03-02T17:49:24.439Z,-0.88
2023-03-02T17:51:52.639Z,-0.93
2023-03-02T17:54:20.705Z,-0.99
2023-03-02T17:56:48.966Z,-1.06
2023-03-02T17:59:17.356Z,-1.11
2023-03-02T18:01:45.585Z,-1.16
2023-03-02T18:04:14.027Z,-1.21
2023-03-02T18:06:42.146Z,-1.24
2023-03-02T18:09:10.388Z,-1.26
2023-03-02T18:11:41.559Z,-1.27
2023-03-02T18:14:14.718Z,-1.31
2023-03-02T18:16:42.732Z,-1.34
2023-03-02T18:19:10.921Z,-1.41
2023-03-02T18:21:41.902Z,-1.46
2023-03-02T18:24:10.330Z,-1.51
2023-03-02T18:26:38.640Z,-1.57
2023-03-02T18:29:07.599Z,-1.62
2023-03-02T18:31:35.751Z,-1.65
2023-03-02T18:34:04.037Z,-1.68
2023-03-02T18:36:32.283Z,-1.70
2023-03-02T18:39:00.915Z,-1.68
2023-03-02T18:41:30.422Z,-1.65
2023-03-02T18:44:01.435Z,-1.62
2023-03-02T18:46:31.520Z,-1.56
2023-03-02T18:49:01.206Z,-1.52
2023-03-02T18:51:29.532Z,-1.50
2023-03-02T18:53:57.734Z,-1.46
2023-03-02T18:56:26.521Z,-1.44
2023-03-02T18:58:54.727Z,-1.40
2023-03-02T19:01:23.474Z,-1.40
2023-03-02T19:03:53.597Z,-1.42
2023-03-02T19:06:23.164Z,-1.42
2023-03-02T19:08:51.289Z,-1.39
2023-03-02T19:11:19.561Z,-1.46
2023-03-02T19:13:47.757Z,-1.50
2023-03-02T19:16:17.850Z,-1.48
2023-03-02T19:18:46.966Z,-1.46
2023-03-02T19:21:15.440Z,-1.45
2023-03-02T19:23:45.558Z,-1.45
2023-03-02T19:26:14.754Z,-1.48
2023-03-02T19:28:42.922Z,-1.45
2023-03-02T19:31:11.570Z,-1.42
2023-03-02T19:33:41.075Z,-1.44
2023-03-02T19:36:10.322Z,-1.51
2023-03-02T19:38:41.646Z,-1.53
2023-03-02T19:41:13.435Z,-1.58
2023-03-02T19:43:42.884Z,-1.64
2023-03-02T19:46:11.138Z,-1.68
2023-03-02T19:48:40.367Z,-1.72
2023-03-02T19:51:09.493Z,-1.78
2023-03-02T19:53:39.336Z,-1.85
2023-03-02T19:56:12.978Z,-1.93
2023-03-02T19:58:47.823Z,-2.00
2023-03-02T20:01:21.913Z,-2.09
2023-03-02T20:03:55.606Z,-2.16
2023-03-02T20:06:31.331Z,-2.22
2023-03-02T20:09:02.612Z,-2.27
2023-03-02T20:11:31.512Z,-2.35
2023-03-02T20:14:02.667Z,-2.40
2023-03-02T20:16:36.595Z,-2.46
2023-03-02T20:19:05.776Z,-2.52
2023-03-02T20:21:34.830Z,-2.56
2023-03-02T20:24:03.245Z,-2.61
2023-03-02T20:26:31.878Z,-2.66
2023-03-02T20:29:02.330Z,-2.72
2023-03-02T20:31:33.328Z,-2.76
2023-03-02T20:34:04.230Z,-2.80
2023-03-02T20:36:34.943Z,-2.82
2023-03-02T20:39:30.894Z,-2.84
2023-03-02T20:42:00.260Z,-2.88
2023-03-02T20:44:31.163Z,-2.92
2023-03-02T20:47:04.683Z,-2.97
2023-03-02T20:49:33.157Z,-3.02
2023-03-02T20:52:02.360Z,-3.06
2023-03-02T20:54:35.268Z,-3.11
2023-03-02T20:57:05.534Z,-3.15
2023-03-02T20:59:33.833Z,-3.19
2023-03-02T21:02:01.961Z,-3.22
2023-03-02T21:04:33.335Z,-3.24
2023-03-02T21:07:01.527Z,-3.25
2023-03-02T21:09:31.240Z,-3.26
2023-03-02T21:11:59.435Z,-3.26
2023-03-02T21:14:27.937Z,-3.24
2023-03-02T21:16:58.653Z,-3.21
2023-03-02T21:19:29.222Z,-3.18
2023-03-02T21:21:57.757Z,-3.14
2023-03-02T21:24:26.272Z,-3.10
2023-03-02T21:26:55.523Z,-3.07
2023-03-02T21:29:26.803Z,-3.03
2023-03-02T21:31:55.107Z,-2.99
2023-03-02T21:34:23.424Z,-2.96
2023-03-02T21:36:53.834Z,-2.96
2023-03-02T21:39:23.795Z,-2.93
2023-03-02T21:41:52.921Z,-2.89
2023-03-02T21:44:21.451Z,-2.81
2023-03-02T21:46:50.978Z,-2.74
2023-03-02T21:49:21.419Z,-2.66
2023-03-02T21:51:50.181Z,-2.63
2023-03-02T21:54:18.384Z,-2.63
2023-03-02T21:56:46.704Z,-2.61
2023-03-02T21:59:14.955Z,-2.54
2023-03-02T22:01:43.080Z,-2.50
2023-03-02T22:04:11.550Z,-2.47
2023-03-02T22:06:39.834Z,-2.42
2023-03-02T22:09:08.000Z,-2.37
2023-03-02T22:11:38.640Z,-2.36
2023-03-02T22:14:16.225Z,-2.34
2023-03-02T22:16:47.985Z,-2.42
2023-03-02T22:19:28.556Z,-2.53
2023-03-02T22:22:03.332Z,-2.57
2023-03-02T22:24:33.167Z,-2.66
2023-03-02T22:27:25.712Z,-2.75
2023-03-02T22:29:57.900Z,-2.81
2023-03-02T22:32:35.595Z,-2.84
2023-03-02T22:35:14.911Z,-2.89
2023-03-02T22:37:43.128Z,-2.96
2023-03-02T22:40:18.198Z,-3.03
2023-03-02T22:42:46.377Z,-3.12
2023-03-02T22:45:17.755Z,-3.21
2023-03-02T22:47:51.459Z,-3.30
2023-03-02T22:50:27.195Z,-3.39
2023-03-02T22:52:57.695Z,-3.46
2023-03-02T22:55:37.262Z,-3.52
2023-03-02T22:58:27.226Z,-3.56
2023-03-02T23:00:56.679Z,-3.59
2023-03-02T23:03:39.405Z,-3.64
2023-03-02T23:06:24.603Z,-3.68
2023-03-02T23:08:55.037Z,-3.74
2023-03-02T23:11:24.833Z,-3.79
2023-03-02T23:13:53.894Z,-3.83
2023-03-02T23:16:24.959Z,-3.87
2023-03-02T23:18:56.515Z,-3.90
2023-03-02T23:21:28.551Z,-3.93
2023-03-02T23:23:56.869Z,-3.96
2023-03-02T23:26:25.039Z,-4.02
2023-03-02T23:28:53.462Z,-4.08
2023-03-02T23:31:21.763Z,-4.12
2023-03-02T23:33:49.980Z,-4.16
2023-03-02T23:36:21.068Z,-4.19
2023-03-02T23:38:51.040Z,-4.21
2023-03-02T23:41:19.457Z,-4.22
2023-03-02T23:43:47.684Z,-4.24
2023-03-02T23:46:16.028Z,-4.26
2023-03-02T23:48:44.529Z,-4.29
2023-03-02T23:51:12.902Z,-4.32
2023-03-02T23:53:41.028Z,-4.34
2023-03-02T23:56:09.132Z,-4.33
2023-03-02T23:58:37.959Z,-4.30
